Time;durP1;ratioP1;P1;durP2;ratioP2;P2;SDS_P1;SDS_P2;PMS_P1;PMS_P2;Temp;Humidity;BMP_temperature;BMP_pressure;BME280_temperature;BME280_humidity;BME280_pressure;Samples;Min_cycle;Max_cycle;Signal;HPM_P1;HPM_P2
2023/05/04 00:00:59;;;;;;;10.33;6.00;;;6.70;99.90;7.30;94524.00;;;;7398101;19;20156;-80
2023/05/04 00:03:33;;;;;;;6.10;5.40;;;6.60;1.00;7.40;94515.00;;;;7398715;19;20137;-80
2023/05/04 00:06:07;;;;;;;7.80;6.30;;;6.50;1.00;7.40;94520.00;;;;7401035;19;20620;-81
2023/05/04 00:08:41;;;;;;;10.17;6.00;;;6.50;1.00;7.30;94515.00;;;;7400316;19;20141;-81
2023/05/04 00:11:16;;;;;;;7.77;5.80;;;6.40;1.00;7.30;94491.00;;;;7400461;19;20133;-81
2023/05/04 00:13:52;;;;;;;12.53;6.40;;;6.40;1.00;7.30;94508.00;;;;7400529;19;20124;-81
2023/05/04 00:16:25;;;;;;;16.03;6.70;;;6.40;1.00;7.40;94517.00;;;;7399353;19;20651;-81
2023/05/04 00:18:59;;;;;;;8.37;5.83;;;6.40;1.00;7.40;94508.00;;;;7398064;19;20482;-81
2023/05/04 00:21:33;;;;;;;7.27;5.60;;;6.40;1.00;7.30;94503.00;;;;7400376;19;20518;-82
2023/05/04 00:24:03;;;;;;;7.30;5.47;;;6.40;1.00;7.30;94481.00;;;;7400400;19;20125;-81
2023/05/04 00:26:30;;;;;;;10.33;6.40;;;6.40;1.00;7.30;94512.00;;;;7398735;19;20204;-81
2023/05/04 00:29:10;;;;;;;11.40;6.90;;;6.30;1.00;7.30;94499.00;;;;7398999;19;20608;-81
2023/05/04 00:31:44;;;;;;;8.07;5.90;;;6.30;1.00;7.10;94495.00;;;;7398294;19;20157;-81
2023/05/04 00:34:13;;;;;;;10.50;5.93;;;6.30;1.00;7.10;94487.00;;;;7399823;19;20133;-82
2023/05/04 00:36:46;;;;;;;11.03;6.20;;;6.20;1.00;7.00;94507.00;;;;7399681;19;20201;-80
2023/05/04 00:39:20;;;;;;;9.50;6.30;;;6.20;1.00;7.00;94503.00;;;;7397135;19;20204;-81
2023/05/04 00:41:53;;;;;;;10.50;6.30;;;6.10;1.00;6.90;94481.00;;;;7400013;19;20149;-82
2023/05/04 00:44:27;;;;;;;7.90;6.07;;;6.00;1.00;6.90;94504.00;;;;7399287;19;20636;-81
2023/05/04 00:47:03;;;;;;;7.73;5.83;;;6.00;1.00;6.80;94493.00;;;;7397625;19;20148;-81
2023/05/04 00:49:36;;;;;;;10.97;6.33;;;5.90;1.00;6.60;94499.00;;;;7398729;19;20549;-81
2023/05/04 00:52:13;;;;;;;7.07;5.80;;;5.80;1.00;6.70;94488.00;;;;7399910;19;20547;-82
2023/05/04 00:54:48;;;;;;;9.17;6.33;;;5.80;1.00;6.70;94489.00;;;;7399355;19;20481;-80
2023/05/04 00:57:22;;;;;;;9.20;6.20;;;5.70;1.00;6.60;94493.00;;;;7398527;19;20592;-81
2023/05/04 00:59:56;;;;;;;9.13;6.37;;;5.70;1.00;6.60;94492.00;;;;7398997;19;20489;-81
2023/05/04 01:02:30;;;;;;;12.13;7.70;;;5.70;5.00;6.70;94483.00;;;;7389196;19;20164;-81
2023/05/04 01:05:17;;;;;;;9.47;5.97;;;5.60;16.00;6.70;94471.00;;;;7393049;19;20169;-81
2023/05/04 01:08:02;;;;;;;9.43;6.20;;;5.70;15.90;6.60;94482.00;;;;7400143;19;20133;-81
2023/05/04 01:10:45;;;;;;;11.03;6.53;;;5.70;26.80;6.50;94479.00;;;;7400230;19;20128;-81
2023/05/04 01:13:21;;;;;;;7.77;5.97;;;5.60;45.30;6.70;94486.00;;;;7401450;19;20133;-81
2023/05/04 01:15:55;;;;;;;9.80;6.33;;;5.70;41.50;6.60;94475.00;;;;7399392;19;20145;-81
2023/05/04 01:18:29;;;;;;;9.10;6.33;;;5.60;33.40;6.50;94453.00;;;;7399723;19;20127;-82
2023/05/04 01:20:56;;;;;;;9.00;6.33;;;5.50;77.30;6.40;94443.00;;;;7397804;19;20580;-82
2023/05/04 01:23:30;;;;;;;13.40;7.00;;;5.40;99.90;6.30;94464.00;;;;7397474;19;20137;-82
2023/05/04 01:26:24;;;;;;;11.30;6.57;;;5.40;99.90;6.30;94476.00;;;;7397176;19;20596;-83
2023/05/04 01:29:21;;;;;;;12.20;7.17;;;5.30;99.90;6.30;94489.00;;;;7403732;19;20455;-80
2023/05/04 01:31:51;;;;;;;12.90;6.93;;;5.30;99.90;6.40;94488.00;;;;7405470;19;20165;-81
2023/05/04 01:34:25;;;;;;;12.13;7.10;;;5.30;99.90;6.40;94465.00;;;;7406939;19;20161;-80
2023/05/04 01:36:59;;;;;;;10.33;7.97;;;5.30;99.90;6.60;94463.00;;;;7407340;19;20195;-80
2023/05/04 01:39:33;;;;;;;21.53;7.87;;;5.40;1.00;6.80;94465.00;;;;7406345;19;20136;-81
2023/05/04 01:42:01;;;;;;;11.13;7.60;;;5.60;99.90;6.80;94483.00;;;;7408326;19;20137;-80
2023/05/04 01:44:34;;;;;;;9.03;7.13;;;5.70;99.90;6.60;94482.00;;;;7406850;19;20150;-81
2023/05/04 01:47:03;;;;;;;12.23;7.30;;;5.70;99.90;6.50;94485.00;;;;7405263;19;20632;-80
2023/05/04 01:49:37;;;;;;;12.70;7.47;;;5.60;99.90;6.60;94480.00;;;;7405517;19;20651;-80
2023/05/04 01:52:04;;;;;;;10.43;7.20;;;5.60;99.90;6.40;94484.00;;;;7404983;19;20137;-80
2023/05/04 01:54:38;;;;;;;9.63;7.67;;;5.50;99.90;6.30;94462.00;;;;7404937;19;20136;-80
2023/05/04 01:57:05;;;;;;;9.40;7.50;;;5.40;99.90;6.30;94480.00;;;;7404625;19;20648;-80
2023/05/04 01:59:39;;;;;;;10.07;7.77;;;5.40;99.90;6.40;94441.00;;;;7401506;19;20640;-80
2023/05/04 02:02:06;;;;;;;11.43;8.13;;;5.40;99.90;6.30;94433.00;;;;7402155;19;20145;-80
2023/05/04 02:04:40;;;;;;;10.97;7.97;;;5.40;99.90;6.50;94479.00;;;;7405192;19;20137;-79
2023/05/04 02:07:20;;;;;;;13.63;8.33;;;5.40;1.00;6.60;94481.00;;;;7404797;19;20157;-80
2023/05/04 02:09:49;;;;;;;11.90;8.00;;;5.60;99.90;6.60;94473.00;;;;7404145;19;20128;-80
2023/05/04 02:12:23;;;;;;;12.70;8.57;;;5.60;99.90;6.90;94481.00;;;;7402275;19;20161;-79
2023/05/04 02:14:50;;;;;;;10.57;8.10;;;5.80;99.90;6.80;94472.00;;;;7403877;19;20136;-80
2023/05/04 02:17:24;;;;;;;9.87;7.70;;;5.90;99.90;7.00;94478.00;;;;7407198;19;20121;-80
2023/05/04 02:19:58;;;;;;;11.70;7.77;;;6.00;99.90;7.00;94472.00;;;;7404557;19;20120;-80
2023/05/04 02:22:34;;;;;;;11.23;7.83;;;6.10;99.90;6.90;94466.00;;;;7406884;19;20124;-80
2023/05/04 02:25:07;;;;;;;12.97;8.40;;;6.10;99.90;7.20;94460.00;;;;7406448;19;20215;-80
2023/05/04 02:27:34;;;;;;;11.43;7.77;;;6.20;41.00;7.10;94440.00;;;;7405614;19;20608;-81
2023/05/04 02:30:09;;;;;;;11.77;8.20;;;6.30;1.00;7.00;94468.00;;;;7403453;19;20140;-81
2023/05/04 02:32:43;;;;;;;14.53;9.20;;;6.30;4.20;7.20;94467.00;;;;7405675;19;20649;-81
2023/05/04 02:35:18;;;;;;;10.50;8.60;;;6.40;40.80;7.20;94448.00;;;;7404993;19;20461;-80
2023/05/04 02:37:52;;;;;;;11.53;9.20;;;6.40;52.80;7.30;94435.00;;;;7406254;19;20124;-81
2023/05/04 02:40:26;;;;;;;12.37;9.90;;;6.50;5.30;7.20;94468.00;;;;7402887;19;20181;-81
2023/05/04 02:43:00;;;;;;;14.77;9.77;;;6.50;87.80;7.20;94468.00;;;;7403320;19;20611;-81
2023/05/04 02:45:35;;;;;;;12.37;10.30;;;6.50;90.30;7.00;94478.00;;;;7403422;19;20576;-81
2023/05/04 02:48:08;;;;;;;14.77;10.23;;;6.40;99.90;6.90;94467.00;;;;7403322;19;20588;-82
2023/05/04 02:50:45;;;;;;;13.93;11.03;;;6.30;99.90;6.80;94467.00;;;;7402780;19;20212;-81
2023/05/04 02:53:19;;;;;;;12.70;9.53;;;6.10;99.90;6.80;94464.00;;;;7402610;19;20132;-80
2023/05/04 02:55:46;;;;;;;16.63;11.00;;;6.10;99.90;6.80;94459.00;;;;7402004;19;20136;-81
2023/05/04 02:58:20;;;;;;;15.20;11.47;;;6.00;99.90;6.80;94445.00;;;;7402041;19;20144;-80
2023/05/04 03:00:52;;;;;;;14.37;11.23;;;6.00;1.00;6.70;94425.00;;;;7397519;19;20140;-81
2023/05/04 03:03:26;;;;;;;15.23;11.20;;;6.00;1.00;6.70;94416.00;;;;7395642;19;20192;-80
2023/05/04 03:06:02;;;;;;;16.30;11.60;;;6.00;1.00;6.70;94463.00;;;;7400026;19;20161;-81
2023/05/04 03:08:37;;;;;;;14.20;10.80;;;6.00;1.00;6.60;94446.00;;;;7402859;19;20137;-81
2023/05/04 03:11:05;;;;;;;17.47;11.60;;;5.90;1.00;6.70;94455.00;;;;7403137;19;20207;-81
2023/05/04 03:13:47;;;;;;;17.90;12.10;;;5.90;1.00;6.70;94450.00;;;;7401954;19;20124;-80
2023/05/04 03:16:15;;;;;;;14.87;11.73;;;5.90;1.00;6.70;94439.00;;;;7402657;19;20127;-80
2023/05/04 03:18:49;;;;;;;16.33;10.77;;;5.90;19.60;6.60;94449.00;;;;7397073;19;20124;-81
2023/05/04 03:21:25;;;;;;;18.27;12.27;;;5.80;74.10;6.50;94456.00;;;;7403667;19;20137;-81
2023/05/04 03:23:59;;;;;;;19.07;12.47;;;5.70;99.90;6.40;94458.00;;;;7402860;19;20492;-81
2023/05/04 03:26:26;;;;;;;19.63;13.03;;;5.60;99.90;6.40;94455.00;;;;7400795;19;20159;-81
2023/05/04 03:29:00;;;;;;;16.07;13.03;;;5.60;99.90;6.60;94449.00;;;;7403706;19;20133;-80
2023/05/04 03:31:34;;;;;;;16.50;12.50;;;5.70;1.00;6.30;94451.00;;;;7402286;19;20149;-81
2023/05/04 03:34:11;;;;;;;17.33;12.80;;;5.60;1.00;6.20;94445.00;;;;7401980;19;20129;-81
2023/05/04 03:36:47;;;;;;;18.90;14.60;;;5.50;1.00;6.20;94450.00;;;;7400989;19;20137;-80
2023/05/04 03:39:21;;;;;;;22.47;13.63;;;5.40;12.20;6.20;94456.00;;;;7400574;19;20205;-81
2023/05/04 03:41:48;;;;;;;17.10;12.80;;;5.40;96.90;6.10;94383.00;;;;7401704;19;20125;-82
2023/05/04 03:44:15;;;;;;;19.80;14.83;;;5.30;99.90;6.10;94437.00;;;;7401842;19;20609;-80
2023/05/04 03:46:49;;;;;;;23.53;14.73;;;5.30;99.90;6.20;94445.00;;;;7399431;19;20179;-81
2023/05/04 03:49:17;;;;;;;20.90;15.20;;;5.30;1.00;6.40;94436.00;;;;7402657;19;20140;-80
2023/05/04 03:51:51;;;;;;;22.70;15.83;;;5.50;15.50;6.50;94446.00;;;;7400070;19;20137;-80
2023/05/04 03:54:25;;;;;;;21.10;15.23;;;5.50;2.40;6.50;94445.00;;;;7402443;19;20129;-81
2023/05/04 03:57:00;;;;;;;20.33;14.90;;;5.60;4.60;6.50;94426.00;;;;7400066;19;20133;-80
2023/05/04 03:59:34;;;;;;;20.03;14.80;;;5.60;1.00;6.50;94434.00;;;;7401567;19;20486;-80
2023/05/04 04:02:08;;;;;;;21.73;15.60;;;5.60;1.00;6.50;94436.00;;;;7399349;19;20148;-81
2023/05/04 04:04:35;;;;;;;25.67;16.30;;;5.60;1.00;6.40;94442.00;;;;7401600;19;20574;-80
2023/05/04 04:07:17;;;;;;;26.33;16.87;;;5.60;1.00;6.30;94436.00;;;;7400217;19;20152;-80
2023/05/04 04:09:45;;;;;;;22.67;15.43;;;5.50;1.00;6.30;94442.00;;;;7402022;19;20463;-80
2023/05/04 04:12:19;;;;;;;24.50;16.90;;;5.50;1.00;6.30;94409.00;;;;7401028;19;20160;-81
2023/05/04 04:14:53;;;;;;;23.77;17.00;;;5.50;34.60;6.30;94428.00;;;;7401529;19;20121;-80
2023/05/04 04:17:27;;;;;;;26.17;16.93;;;5.50;99.90;6.50;94413.00;;;;7401584;19;20133;-81
2023/05/04 04:20:01;;;;;;;24.80;17.17;;;5.60;99.90;6.50;94424.00;;;;7398724;19;20149;-81
2023/05/04 04:22:29;;;;;;;25.47;16.77;;;5.70;99.90;6.50;94427.00;;;;7401265;19;20172;-82
2023/05/04 04:25:03;;;;;;;24.53;16.50;;;5.70;99.90;6.50;94424.00;;;;7400817;19;20619;-81
2023/05/04 04:27:30;;;;;;;24.67;16.80;;;5.70;99.90;6.70;94416.00;;;;7401001;19;20133;-81
2023/05/04 04:30:05;;;;;;;26.47;15.43;;;5.70;99.90;6.50;94397.00;;;;7400337;19;20624;-81
2023/05/04 04:32:44;;;;;;;23.27;17.30;;;5.70;99.90;6.60;94415.00;;;;7401639;19;20479;-81
2023/05/04 04:35:13;;;;;;;27.97;17.77;;;5.80;99.90;6.80;94413.00;;;;7401925;19;20200;-80
2023/05/04 04:37:46;;;;;;;26.27;17.30;;;5.90;99.90;7.00;94425.00;;;;7403361;19;20152;-80
2023/05/04 04:40:14;;;;;;;24.23;17.23;;;6.00;71.50;7.10;94417.00;;;;7401947;19;20132;-81
2023/05/04 04:42:48;;;;;;;27.23;17.30;;;6.10;1.00;7.10;94410.00;;;;7405046;19;20132;-80
2023/05/04 04:45:15;;;;;;;27.43;17.60;;;6.20;1.00;7.20;94396.00;;;;7402903;19;20180;-80
2023/05/04 04:47:50;;;;;;;24.47;17.03;;;6.30;1.00;7.30;94424.00;;;;7403273;19;20154;-79
2023/05/04 04:50:25;;;;;;;25.37;17.80;;;6.40;1.00;7.30;94407.00;;;;7403317;19;20131;-79
2023/05/04 04:52:59;;;;;;;26.50;17.67;;;6.40;1.00;7.60;94415.00;;;;7404660;19;20477;-80
2023/05/04 04:55:28;;;;;;;22.37;16.50;;;6.50;99.90;7.40;94418.00;;;;7400816;19;20676;-79
2023/05/04 04:58:01;;;;;;;20.10;16.13;;;6.60;99.90;7.60;94415.00;;;;7401179;19;20132;-79
2023/05/04 05:00:29;;;;;;;22.87;15.03;;;6.60;99.90;7.60;94410.00;;;;7401159;19;20136;-78
2023/05/04 05:03:03;;;;;;;23.20;17.10;;;6.70;99.90;7.90;94415.00;;;;7401554;19;20168;-79
2023/05/04 05:05:37;;;;;;;20.80;15.80;;;6.80;99.90;8.00;94383.00;;;;7402575;19;20230;-79
2023/05/04 05:08:18;;;;;;;23.77;16.67;;;6.90;99.90;8.20;94385.00;;;;7403153;19;20583;-79
2023/05/04 05:10:45;;;;;;;21.57;17.27;;;7.00;10.00;8.40;94383.00;;;;7404162;19;20132;-79
2023/05/04 05:13:19;;;;;;;23.90;17.13;;;7.20;1.00;8.60;94406.00;;;;7399733;19;20148;-78
2023/05/04 05:15:46;;;;;;;22.17;16.27;;;7.40;99.90;8.70;94395.00;;;;7402507;19;20129;-79
2023/05/04 05:18:20;;;;;;;20.37;15.43;;;7.60;99.90;8.90;94400.00;;;;7402135;19;20132;-79
2023/05/04 05:20:55;;;;;;;21.83;15.63;;;7.70;1.00;8.80;94408.00;;;;7400198;19;20129;-79
2023/05/04 05:23:22;;;;;;;20.07;15.97;;;7.70;1.00;9.10;94385.00;;;;7403590;19;20137;-79
2023/05/04 05:26:05;;;;;;;20.43;15.23;;;7.90;1.00;9.00;94410.00;;;;7400039;19;20148;-79
2023/05/04 05:28:45;;;;;;;20.63;15.03;;;8.00;1.00;9.10;94386.00;;;;7401826;19;20148;-79
2023/05/04 05:31:21;;;;;;;18.40;15.50;;;8.10;1.00;9.30;94391.00;;;;7404180;19;20592;-79
2023/05/04 05:33:55;;;;;;;20.20;15.80;;;8.20;99.90;9.40;94410.00;;;;7403140;19;20145;-79
2023/05/04 05:36:22;;;;;;;19.83;14.70;;;8.40;99.90;9.60;94418.00;;;;7401263;19;20230;-78
2023/05/04 05:38:56;;;;;;;20.13;15.13;;;8.50;99.90;9.80;94421.00;;;;7400559;19;20158;-79
2023/05/04 05:41:26;;;;;;;20.87;15.53;;;8.70;99.90;9.90;94416.00;;;;7403140;19;20137;-78
2023/05/04 05:44:00;;;;;;;19.63;15.43;;;8.80;93.80;10.10;94419.00;;;;7402845;19;20156;-78
2023/05/04 05:46:34;;;;;;;17.15;14.68;;;9.00;1.00;10.30;94371.00;;;;7401581;19;20643;-80
2023/05/04 05:49:08;;;;;;;18.50;15.07;;;9.10;1.00;10.60;94389.00;;;;7398685;19;20170;-81
2023/05/04 05:51:42;;;;;;;18.45;15.02;;;9.30;1.00;10.90;94420.00;;;;7399985;19;20137;-81
2023/05/04 05:54:16;;;;;;;19.00;14.77;;;9.50;1.00;11.00;94419.00;;;;7398942;19;20132;-82
2023/05/04 05:56:45;;;;;;;16.98;14.32;;;9.70;1.00;11.30;94408.00;;;;7396314;19;20130;-80
2023/05/04 05:59:14;;;;;;;17.08;13.73;;;9.80;99.90;11.60;94416.00;;;;7398917;19;20148;-82
2023/05/04 06:01:48;;;;;;;19.02;13.80;;;10.00;99.90;11.80;94418.00;;;;7394969;19;20128;-79
2023/05/04 06:04:22;;;;;;;16.10;12.40;;;10.20;99.90;11.90;94417.00;;;;7398019;19;20133;-78
2023/05/04 06:06:55;;;;;;;14.18;12.35;;;10.30;99.90;12.00;94407.00;;;;7395096;19;20156;-79
2023/05/04 06:09:29;;;;;;;14.20;11.80;;;10.50;99.90;12.50;94410.00;;;;7398485;19;20132;-78
2023/05/04 06:12:05;;;;;;;16.48;13.25;;;10.70;99.90;13.20;94408.00;;;;7396763;19;20133;-78
2023/05/04 06:14:35;;;;;;;14.63;11.65;;;10.80;99.90;13.70;94418.00;;;;7400602;19;20136;-79
2023/05/04 06:17:09;;;;;;;13.93;11.40;;;10.90;99.90;13.20;94391.00;;;;7407046;19;20584;-79
2023/05/04 06:19:44;;;;;;;14.90;12.05;;;10.90;99.90;13.00;94414.00;;;;7404445;19;20596;-78
2023/05/04 06:22:16;;;;;;;16.92;11.52;;;11.00;99.90;12.90;94401.00;;;;7405940;19;20581;-79
2023/05/04 06:24:50;;;;;;;17.00;11.75;;;11.00;99.90;12.80;94411.00;;;;7404233;19;20596;-78
2023/05/04 06:27:19;;;;;;;12.55;11.25;;;11.00;99.90;12.70;94397.00;;;;7405308;19;20160;-83
2023/05/04 06:29:54;;;;;;;11.52;10.32;;;11.00;99.90;12.90;94402.00;;;;7404497;19;20461;-80
2023/05/04 06:32:22;;;;;;;11.20;9.55;;;11.20;85.00;13.00;94399.00;;;;7404318;19;20117;-80
2023/05/04 06:34:55;;;;;;;14.40;10.50;;;11.30;43.00;13.20;94407.00;;;;7403545;19;20136;-79
2023/05/04 06:37:22;;;;;;;11.68;10.07;;;11.40;41.30;13.20;94367.00;;;;7402144;19;20144;-79
2023/05/04 06:39:56;;;;;;;11.75;10.00;;;11.40;1.00;13.60;94412.00;;;;7401029;19;20160;-79
2023/05/04 06:42:23;;;;;;;13.35;9.73;;;11.50;28.80;13.60;94404.00;;;;7403264;19;20580;-79
2023/05/04 06:44:57;;;;;;;13.77;10.05;;;11.60;27.90;14.30;94410.00;;;;7400280;19;20173;-80
2023/05/04 06:47:24;;;;;;;12.35;10.32;;;11.80;1.00;14.70;94382.00;;;;7401199;19;20184;-80
2023/05/04 06:49:58;;;;;;;10.43;9.23;;;11.90;1.00;14.60;94385.00;;;;7399983;19;20611;-80
2023/05/04 06:52:28;;;;;;;11.82;8.75;;;12.00;1.00;14.80;94406.00;;;;7403099;19;20150;-81
2023/05/04 06:55:02;;;;;;;9.40;8.40;;;12.20;1.00;14.40;94398.00;;;;7401338;19;20147;-82
2023/05/04 06:57:29;;;;;;;10.40;9.00;;;12.20;1.00;14.80;94410.00;;;;7402947;19;20454;-81
2023/05/04 07:00:04;;;;;;;9.60;8.60;;;12.20;1.00;15.20;94402.00;;;;7399596;19;20161;-80
2023/05/04 07:02:32;;;;;;;10.15;8.52;;;12.40;1.00;15.50;94398.00;;;;7399943;19;20750;-80
2023/05/04 07:05:13;;;;;;;9.57;8.52;;;12.60;1.00;15.20;94404.00;;;;7400637;19;20165;-81
2023/05/04 07:07:47;;;;;;;9.40;8.20;;;12.70;1.00;15.20;94398.00;;;;7401944;19;20135;-80
2023/05/04 07:10:21;;;;;;;12.30;8.65;;;12.80;1.00;15.20;94409.00;;;;7397313;19;20128;-80
2023/05/04 07:12:55;;;;;;;9.13;8.02;;;12.80;1.00;15.30;94407.00;;;;7384355;19;20124;-81
2023/05/04 07:15:29;;;;;;;10.75;8.43;;;12.90;1.00;15.60;94372.00;;;;7369191;19;20235;-80
2023/05/04 07:18:00;;;;;;;10.20;7.90;;;13.00;1.00;15.50;94416.00;;;;7377979;19;20125;-83
2023/05/04 07:20:33;;;;;;;9.10;7.72;;;13.20;1.00;15.70;94404.00;;;;7377769;19;20160;-82
2023/05/04 07:23:00;;;;;;;9.43;8.45;;;13.20;1.00;15.70;94394.00;;;;7380049;19;20604;-82
2023/05/04 07:25:34;;;;;;;11.27;7.50;;;13.20;1.00;15.70;94419.00;;;;7372245;19;20191;-82
2023/05/04 07:28:01;;;;;;;8.88;7.63;;;13.40;1.00;15.80;94418.00;;;;7374853;19;20136;-81
2023/05/04 07:30:35;;;;;;;8.65;7.25;;;13.50;1.00;16.20;94414.00;;;;7371234;19;21224;-81
2023/05/04 07:33:10;;;;;;;12.43;8.25;;;13.70;1.00;16.50;94406.00;;;;7372192;19;20531;-81
2023/05/04 07:35:43;;;;;;;7.93;6.97;;;13.80;1.00;16.10;94418.00;;;;7371908;19;20204;-80
2023/05/04 07:38:17;;;;;;;8.40;7.55;;;13.80;1.00;16.50;94391.00;;;;7371870;19;20125;-77
2023/05/04 07:40:53;;;;;;;8.63;7.72;;;13.90;1.00;16.90;94376.00;;;;7371286;19;20666;-81
2023/05/04 07:43:20;;;;;;;10.50;8.38;;;14.10;1.00;17.30;94405.00;;;;7368357;19;20153;-80
2023/05/04 07:45:55;;;;;;;9.88;7.50;;;14.20;1.00;17.60;94398.00;;;;7370800;19;20146;-82
2023/05/04 07:48:22;;;;;;;8.93;7.63;;;14.50;1.00;17.80;94385.00;;;;7369190;19;20143;-78
2023/05/04 07:50:56;;;;;;;13.13;9.05;;;14.70;1.00;17.80;94376.00;;;;7369632;19;20151;-80
2023/05/04 07:53:25;;;;;;;8.70;7.32;;;14.90;1.00;18.10;94403.00;;;;7369477;19;20136;-76
2023/05/04 07:56:08;;;;;;;9.75;7.65;;;15.00;1.00;17.90;94389.00;;;;7369569;19;20156;-76
2023/05/04 07:58:36;;;;;;;7.75;6.95;;;15.20;1.00;17.80;94392.00;;;;7370080;19;20169;-77
2023/05/04 08:01:09;;;;;;;8.73;7.50;;;15.20;1.00;18.10;94389.00;;;;7371351;19;20133;-77
2023/05/04 08:03:37;;;;;;;7.85;6.55;;;15.20;1.00;17.90;94397.00;;;;7367480;19;20163;-78
2023/05/04 08:06:04;;;;;;;7.70;6.85;;;15.30;1.00;18.20;94391.00;;;;7372256;19;21410;-79
2023/05/04 08:08:45;;;;;;;9.90;7.35;;;15.40;1.00;18.00;94405.00;;;;7371468;19;20605;-79
2023/05/04 08:11:19;;;;;;;9.60;6.80;;;15.30;1.00;17.90;94381.00;;;;7371803;19;20133;-78
2023/05/04 08:13:54;;;;;;;9.30;6.93;;;15.30;1.00;18.30;94393.00;;;;7370646;19;20139;-78
2023/05/04 08:16:21;;;;;;;9.13;6.93;;;15.20;1.00;18.70;94395.00;;;;7369470;19;20174;-79
2023/05/04 08:18:56;;;;;;;8.48;6.47;;;15.40;1.00;18.90;94374.00;;;;7369652;19;20156;-78
2023/05/04 08:21:23;;;;;;;10.20;6.47;;;15.60;1.00;18.90;94388.00;;;;7369276;19;20152;-78
2023/05/04 08:23:57;;;;;;;8.68;6.43;;;15.70;1.00;19.30;94375.00;;;;7369620;19;20558;-77
2023/05/04 08:26:25;;;;;;;9.48;6.78;;;15.80;1.00;19.10;94384.00;;;;7370540;19;20125;-79
2023/05/04 08:28:52;;;;;;;9.45;6.10;;;16.00;1.00;19.30;94393.00;;;;7371001;19;20592;-78
2023/05/04 08:31:26;;;;;;;6.55;5.68;;;16.10;1.00;19.20;94369.00;;;;7369315;19;20623;-80
2023/05/04 08:34:00;;;;;;;6.70;5.90;;;16.10;1.00;19.80;94378.00;;;;7368665;19;20473;-78
2023/05/04 08:36:34;;;;;;;6.75;5.88;;;16.20;1.00;19.90;94382.00;;;;7367595;19;20171;-78
2023/05/04 08:39:02;;;;;;;5.95;5.35;;;16.20;1.00;19.90;94372.00;;;;7370695;19;20128;-78
2023/05/04 08:41:39;;;;;;;5.43;4.93;;;16.40;1.00;20.70;94376.00;;;;7368478;19;20189;-79
2023/05/04 08:44:09;;;;;;;7.68;5.47;;;16.70;1.00;21.60;94364.00;;;;7367612;19;20133;-79
2023/05/04 08:46:51;;;;;;;5.32;4.82;;;17.10;1.00;21.90;94377.00;;;;7370410;19;20458;-78
2023/05/04 08:49:23;;;;;;;5.00;4.57;;;17.60;1.00;21.50;94377.00;;;;7371417;19;20488;-79
2023/05/04 08:51:59;;;;;;;5.70;5.20;;;17.80;1.00;21.50;94368.00;;;;7369075;19;20506;-79
2023/05/04 08:54:35;;;;;;;5.75;4.78;;;18.10;1.00;21.80;94363.00;;;;7369447;19;20148;-79
2023/05/04 08:57:03;;;;;;;6.07;5.47;;;18.10;1.00;21.70;94368.00;;;;7369247;19;20152;-79
2023/05/04 08:59:37;;;;;;;5.25;4.70;;;18.00;1.00;21.30;94369.00;;;;7369993;19;20580;-78
2023/05/04 09:02:13;;;;;;;4.63;4.22;;;18.10;1.00;21.40;94358.00;;;;7368874;19;20164;-77
2023/05/04 09:04:46;;;;;;;5.95;4.53;;;18.10;1.00;21.20;94359.00;;;;7368039;19;20224;-77
2023/05/04 09:07:26;;;;;;;4.78;3.97;;;18.40;1.00;21.80;94344.00;;;;7366277;19;20164;-77
2023/05/04 09:09:55;;;;;;;4.63;4.15;;;18.50;1.00;22.00;94368.00;;;;7368628;19;20152;-78
2023/05/04 09:12:30;;;;;;;5.45;4.55;;;18.80;1.00;22.40;94363.00;;;;7366131;19;20133;-78
2023/05/04 09:15:00;;;;;;;4.20;3.85;;;19.00;1.00;22.90;94338.00;;;;7366016;19;20152;-75
2023/05/04 09:17:34;;;;;;;6.13;4.15;;;19.40;1.00;22.80;94366.00;;;;7367584;19;20208;-77
2023/05/04 09:20:12;;;;;;;14.63;4.55;;;19.60;1.00;22.80;94361.00;;;;7368114;19;20148;-78
2023/05/04 09:22:45;;;;;;;5.03;4.47;;;19.70;1.00;23.40;94364.00;;;;7368098;19;20794;-78
2023/05/04 09:25:19;;;;;;;4.70;4.15;;;19.90;1.00;23.50;94367.00;;;;7366186;19;20163;-78
2023/05/04 09:27:53;;;;;;;4.93;4.40;;;20.00;1.00;23.30;94373.00;;;;7367902;19;20151;-78
2023/05/04 09:30:27;;;;;;;4.22;3.83;;;20.20;1.00;23.30;94359.00;;;;7367590;19;20161;-78
2023/05/04 09:33:02;;;;;;;3.95;3.25;;;20.30;1.00;22.50;94357.00;;;;7367460;19;21648;-78
2023/05/04 09:35:29;;;;;;;8.70;4.22;;;19.80;1.00;22.50;94380.00;;;;7365674;19;20149;-77
2023/05/04 09:38:03;;;;;;;8.15;3.78;;;19.80;1.00;22.50;94362.00;;;;7367441;19;20160;-77
2023/05/04 09:40:40;;;;;;;4.80;3.28;;;20.00;1.00;23.00;94366.00;;;;7366865;19;20616;-78
2023/05/04 09:43:09;;;;;;;2.92;2.67;;;20.30;1.00;23.00;94368.00;;;;7367076;19;20589;-77
2023/05/04 09:45:47;;;;;;;4.28;2.63;;;20.50;1.00;22.30;94374.00;;;;7368904;19;20124;-78
2023/05/04 09:48:27;;;;;;;3.90;3.50;;;20.30;1.00;22.20;94372.00;;;;7369031;19;20611;-78
2023/05/04 09:51:02;;;;;;;3.40;3.10;;;20.40;1.00;23.00;94341.00;;;;7374843;19;20164;-77
2023/05/04 09:53:32;;;;;;;2.97;2.42;;;20.80;1.00;23.10;94361.00;;;;7373248;19;20465;-76
2023/05/04 09:56:44;;;;;;;3.78;2.80;;;20.70;1.00;22.30;94344.00;;;;7373674;19;20157;-76
2023/05/04 09:59:19;;;;;;;3.95;3.55;;;20.50;1.00;22.70;94347.00;;;;7373617;19;20157;-76
2023/05/04 10:01:53;;;;;;;3.33;2.70;;;20.30;1.00;22.20;94371.00;;;;7370201;19;20152;-77
2023/05/04 10:04:21;;;;;;;3.90;2.50;;;20.00;1.00;21.70;94366.00;;;;7373169;19;20689;-74
2023/05/04 10:06:55;;;;;;;2.90;2.47;;;19.40;1.00;21.90;94364.00;;;;7375038;19;20534;-76
2023/05/04 10:09:31;;;;;;;3.03;2.42;;;19.50;1.00;22.10;94363.00;;;;7374243;19;20473;-79
2023/05/04 10:12:05;;;;;;;3.63;3.08;;;19.80;1.00;20.90;94372.00;;;;7373003;19;20152;-77
2023/05/04 10:14:38;;;;;;;3.55;2.30;;;19.60;1.00;21.30;94358.00;;;;7371540;19;20177;-76
2023/05/04 10:17:56;;;;;;;5.03;2.90;;;19.40;1.00;22.20;94361.00;;;;7371870;19;20152;-78
2023/05/04 10:20:57;;;;;;;2.90;2.70;;;20.00;1.00;22.40;94325.00;;;;7374524;19;20155;-78
2023/05/04 10:24:17;;;;;;;3.10;2.80;;;20.30;1.00;22.40;94355.00;;;;7374425;19;20154;-77
2023/05/04 10:27:15;;;;;;;3.55;3.22;;;20.30;1.00;23.00;94336.00;;;;7371925;19;20129;-78
2023/05/04 10:29:57;;;;;;;3.90;2.72;;;20.70;99.90;22.80;94344.00;;;;7372317;19;20149;-78
2023/05/04 10:32:24;;;;;;;3.25;2.95;;;21.20;99.90;23.10;94349.00;;;;7372167;19;20124;-74
2023/05/04 10:35:06;;;;;;;4.45;3.20;;;21.40;1.00;22.80;94337.00;;;;7372966;19;20464;-76
2023/05/04 10:37:53;;;;;;;3.22;2.92;;;21.00;99.90;22.90;94326.00;;;;7371926;19;20133;-75
2023/05/04 10:40:39;;;;;;;5.15;2.83;;;20.40;1.00;23.10;94341.00;;;;7373773;19;20632;-74
2023/05/04 10:43:24;;;;;;;2.67;2.42;;;20.80;1.00;23.50;94315.00;;;;7371072;19;20152;-74
2023/05/04 10:45:51;;;;;;;3.38;3.08;;;21.20;1.00;24.20;94310.00;;;;7372086;19;20487;-75
2023/05/04 10:48:35;;;;;;;2.83;2.63;;;21.60;99.90;24.20;94296.00;;;;7371607;19;20206;-74
2023/05/04 10:51:03;;;;;;;3.85;2.78;;;21.70;1.00;24.70;94321.00;;;;7372993;19;20453;-75
2023/05/04 10:53:37;;;;;;;2.92;2.72;;;22.20;99.90;24.70;94320.00;;;;7371183;19;20148;-74
2023/05/04 10:56:26;;;;;;;3.97;2.63;;;22.50;99.90;24.80;94323.00;;;;7370940;19;20958;-75
2023/05/04 10:58:54;;;;;;;2.97;2.63;;;23.10;99.90;25.10;94319.00;;;;7370415;19;20173;-74
2023/05/04 11:01:28;;;;;;;3.40;2.70;;;23.80;99.90;26.00;94317.00;;;;7366161;19;20140;-74
2023/05/04 11:04:02;;;;;;;2.55;2.35;;;24.30;99.90;26.20;94291.00;;;;7370614;19;20612;-75
2023/05/04 11:06:37;;;;;;;5.65;2.47;;;24.20;99.90;26.40;94306.00;;;;7368619;19;20769;-74
2023/05/04 11:09:16;;;;;;;3.90;2.70;;;24.50;99.90;26.50;94302.00;;;;7373362;19;20462;-75
2023/05/04 11:11:56;;;;;;;3.10;2.80;;;24.20;99.90;25.90;94303.00;;;;7371382;19;20188;-75
2023/05/04 11:14:29;;;;;;;4.85;2.65;;;24.10;99.90;26.90;94287.00;;;;7370531;19;20156;-75
2023/05/04 11:17:12;;;;;;;4.72;3.10;;;24.80;99.90;26.50;94305.00;;;;7370431;19;20490;-75
2023/05/04 11:19:50;;;;;;;2.72;2.53;;;24.80;99.90;26.50;94278.00;;;;7371603;19;20158;-75
2023/05/04 11:22:24;;;;;;;5.75;2.75;;;24.50;99.90;26.10;94298.00;;;;7370920;19;20226;-74
2023/05/04 11:24:51;;;;;;;2.90;2.70;;;23.90;99.90;26.10;94302.00;;;;7369709;19;20178;-74
2023/05/04 11:27:30;;;;;;;2.83;2.58;;;24.20;99.90;26.70;94280.00;;;;7366586;19;20544;-74
2023/05/04 11:30:04;;;;;;;3.70;2.33;;;24.00;99.90;27.00;94290.00;;;;7370606;19;20153;-73